Time;durP1;ratioP1;P1;durP2;ratioP2;P2;SDS_P1;SDS_P2;PMS_P1;PMS_P2;Temp;Humidity;BMP_temperature;BMP_pressure;BME280_temperature;BME280_humidity;BME280_pressure;Samples;Min_cycle;Max_cycle;Signal;HPM_P1;HPM_P2
2022/07/27 00:01:12;;;;;;;1.42;0.80;;;;;;;;;;5026963;28;20053;-75
2022/07/27 00:03:41;;;;;;;0.90;0.45;;;;;;;;;;5023215;28;20191;-75
2022/07/27 00:06:09;;;;;;;1.08;0.90;;;;;;;;;;5013256;28;20132;-73
2022/07/27 00:08:38;;;;;;;0.20;0.20;;;;;;;;;;5011066;28;20113;-73
2022/07/27 00:11:08;;;;;;;3.50;0.82;;;;;;;;;;5028276;28;20068;-73
2022/07/27 00:13:37;;;;;;;0.98;0.73;;;;;;;;;;5024552;28;20050;-75
2022/07/27 00:16:08;;;;;;;0.50;0.43;;;;;;;;;;5026114;28;20049;-74
2022/07/27 00:18:37;;;;;;;1.17;0.70;;;;;;;;;;5014511;28;20050;-73
2022/07/27 00:21:05;;;;;;;0.30;0.30;;;;;;;;;;5026846;28;20129;-74
2022/07/27 00:23:34;;;;;;;0.63;0.52;;;;;;;;;;5022734;28;20465;-76
2022/07/27 00:26:04;;;;;;;0.60;0.60;;;;;;;;;;5020456;28;20075;-73
2022/07/27 00:28:34;;;;;;;1.27;0.60;;;;;;;;;;5027694;28;20065;-75
2022/07/27 00:31:05;;;;;;;0.88;0.50;;;;;;;;;;5023985;28;20133;-73
2022/07/27 00:33:34;;;;;;;0.50;0.50;;;;;;;;;;5024217;28;20077;-78
2022/07/27 00:36:05;;;;;;;0.38;0.38;;;;;;;;;;5023021;28;20084;-74
2022/07/27 00:38:33;;;;;;;0.60;0.38;;;;;;;;;;5023761;28;20049;-76
2022/07/27 00:41:03;;;;;;;1.77;0.88;;;;;;;;;;5028397;28;20479;-75
2022/07/27 00:43:33;;;;;;;0.93;0.43;;;;;;;;;;5011290;28;20138;-73
2022/07/27 00:46:04;;;;;;;0.95;0.63;;;;;;;;;;5026811;28;20111;-74
2022/07/27 00:48:33;;;;;;;0.55;0.45;;;;;;;;;;5024741;28;20428;-73
2022/07/27 00:51:01;;;;;;;0.68;0.60;;;;;;;;;;5027230;28;20495;-73
2022/07/27 00:53:32;;;;;;;0.20;0.20;;;;;;;;;;5015900;28;20073;-74
2022/07/27 00:56:00;;;;;;;0.85;0.80;;;;;;;;;;5025572;28;20052;-73
2022/07/27 00:58:29;;;;;;;0.63;0.52;;;;;;;;;;5025388;28;20116;-74
2022/07/27 01:00:59;;;;;;;0.52;0.40;;;;;;;;;;5022818;28;20096;-73
2022/07/27 01:03:28;;;;;;;2.50;0.68;;;;;;;;;;5024925;28;20668;-75
2022/07/27 01:05:57;;;;;;;0.47;0.40;;;;;;;;;;5029706;28;20049;-73
2022/07/27 01:08:29;;;;;;;0.95;0.60;;;;;;;;;;5031830;28;20045;-74
2022/07/27 01:10:57;;;;;;;0.80;0.40;;;;;;;;;;5028454;28;20050;-74
2022/07/27 01:13:26;;;;;;;1.08;0.73;;;;;;;;;;5030556;28;20170;-74
2022/07/27 01:15:55;;;;;;;1.58;0.55;;;;;;;;;;5027483;28;20474;-73
2022/07/27 01:18:29;;;;;;;0.63;0.40;;;;;;;;;;5030103;28;20042;-75
2022/07/27 01:20:58;;;;;;;0.65;0.52;;;;;;;;;;5024859;28;20121;-74
2022/07/27 01:23:31;;;;;;;1.33;0.55;;;;;;;;;;5025169;28;20466;-74
2022/07/27 01:25:59;;;;;;;0.40;0.38;;;;;;;;;;5021884;28;20467;-73
2022/07/27 01:28:28;;;;;;;0.82;0.40;;;;;;;;;;5027821;28;20077;-74
2022/07/27 01:30:57;;;;;;;1.05;0.80;;;;;;;;;;5030131;28;20124;-76
2022/07/27 01:33:28;;;;;;;0.68;0.40;;;;;;;;;;5023374;28;20042;-74
2022/07/27 01:35:57;;;;;;;0.38;0.15;;;;;;;;;;5030802;28;20577;-74
2022/07/27 01:38:26;;;;;;;0.25;0.25;;;;;;;;;;5017591;28;20136;-74
2022/07/27 01:40:56;;;;;;;0.85;0.30;;;;;;;;;;5030633;28;20340;-75
2022/07/27 01:43:24;;;;;;;0.85;0.57;;;;;;;;;;5029350;28;20046;-73
2022/07/27 01:45:53;;;;;;;0.90;0.60;;;;;;;;;;5028402;28;20077;-75
2022/07/27 01:48:21;;;;;;;0.50;0.45;;;;;;;;;;5022252;28;20405;-73
2022/07/27 01:50:50;;;;;;;0.30;0.30;;;;;;;;;;5020653;28;20147;-76
2022/07/27 01:53:19;;;;;;;0.43;0.43;;;;;;;;;;5027938;28;20048;-76
2022/07/27 01:55:48;;;;;;;0.65;0.40;;;;;;;;;;5035671;28;20827;-73
2022/07/27 01:58:18;;;;;;;0.40;0.40;;;;;;;;;;5029239;28;20053;-76
2022/07/27 02:00:46;;;;;;;0.73;0.38;;;;;;;;;;5026423;28;20490;-74
2022/07/27 02:03:15;;;;;;;1.42;1.02;;;;;;;;;;5027159;28;20063;-73
2022/07/27 02:05:43;;;;;;;0.63;0.40;;;;;;;;;;5029107;28;20149;-74
2022/07/27 02:08:12;;;;;;;0.50;0.40;;;;;;;;;;5024689;28;20041;-75
2022/07/27 02:12:34;;;;;;;0.40;0.40;;;;;;;;;;5025544;28;20126;-74
2022/07/27 02:13:37;;;;;;;0.60;0.55;;;;;;;;;;5029862;28;20671;-74
2022/07/27 02:16:06;;;;;;;0.68;0.50;;;;;;;;;;5027826;28;20049;-73
2022/07/27 02:18:44;;;;;;;0.13;0.13;;;;;;;;;;5026446;28;20048;-74
2022/07/27 02:21:15;;;;;;;0.65;0.47;;;;;;;;;;5029554;28;20060;-74
2022/07/27 02:23:45;;;;;;;0.38;0.32;;;;;;;;;;5028320;28;20042;-73
2022/07/27 02:26:14;;;;;;;0.47;0.38;;;;;;;;;;5017918;28;20148;-75
2022/07/27 02:28:43;;;;;;;0.52;0.52;;;;;;;;;;5028678;28;20057;-77
2022/07/27 02:31:12;;;;;;;0.40;0.38;;;;;;;;;;5025926;28;20408;-74
2022/07/27 02:33:40;;;;;;;0.40;0.40;;;;;;;;;;5028808;28;20123;-74
2022/07/27 02:36:08;;;;;;;0.77;0.43;;;;;;;;;;5025579;28;20087;-74
2022/07/27 02:38:37;;;;;;;3.45;0.50;;;;;;;;;;5017127;28;20052;-74
2022/07/27 02:41:05;;;;;;;0.75;0.50;;;;;;;;;;5024458;28;20136;-74
2022/07/27 02:43:34;;;;;;;0.40;0.40;;;;;;;;;;5028000;28;20050;-74
2022/07/27 02:46:06;;;;;;;0.43;0.25;;;;;;;;;;5026043;28;20148;-76
2022/07/27 02:48:35;;;;;;;0.50;0.47;;;;;;;;;;5027844;28;20132;-73
2022/07/27 02:51:06;;;;;;;0.50;0.45;;;;;;;;;;5027782;28;20500;-75
2022/07/27 02:53:34;;;;;;;0.75;0.50;;;;;;;;;;5026153;28;20052;-73
2022/07/27 02:56:05;;;;;;;0.55;0.43;;;;;;;;;;5026153;28;20137;-76
2022/07/27 02:58:34;;;;;;;0.50;0.40;;;;;;;;;;5026511;28;20049;-76
2022/07/27 03:01:04;;;;;;;0.28;0.22;;;;;;;;;;5027522;28;20132;-74
2022/07/27 03:03:35;;;;;;;0.63;0.25;;;;;;;;;;5027891;28;20493;-74
2022/07/27 03:06:07;;;;;;;1.38;0.50;;;;;;;;;;5028343;28;20050;-73
2022/07/27 03:08:36;;;;;;;0.82;0.50;;;;;;;;;;5026022;28;20152;-74
2022/07/27 03:11:08;;;;;;;0.60;0.60;;;;;;;;;;5024450;28;20046;-73
2022/07/27 03:13:37;;;;;;;0.20;0.20;;;;;;;;;;5026189;28;20084;-74
2022/07/27 03:16:08;;;;;;;0.65;0.40;;;;;;;;;;5020265;28;20136;-75
2022/07/27 03:18:38;;;;;;;0.40;0.40;;;;;;;;;;5026214;28;20065;-73
2022/07/27 03:21:07;;;;;;;2.17;0.82;;;;;;;;;;5024199;28;20045;-74
2022/07/27 03:23:36;;;;;;;0.40;0.28;;;;;;;;;;5023182;28;20060;-75
2022/07/27 03:26:07;;;;;;;0.52;0.52;;;;;;;;;;5024777;28;20088;-75
2022/07/27 03:28:35;;;;;;;1.50;0.38;;;;;;;;;;5024672;28;20057;-74
2022/07/27 03:31:06;;;;;;;0.52;0.52;;;;;;;;;;5022311;28;20049;-76
2022/07/27 03:33:35;;;;;;;0.10;0.10;;;;;;;;;;5023921;28;20103;-75
2022/07/27 03:36:07;;;;;;;0.75;0.55;;;;;;;;;;5027279;28;20052;-79
2022/07/27 03:38:36;;;;;;;4.80;0.43;;;;;;;;;;5021946;28;20087;-75
2022/07/27 03:41:07;;;;;;;0.20;0.20;;;;;;;;;;5027391;28;20084;-75
2022/07/27 03:43:36;;;;;;;1.05;0.43;;;;;;;;;;5025918;28;20084;-74
2022/07/27 03:46:07;;;;;;;0.20;0.20;;;;;;;;;;5022246;28;20088;-73
2022/07/27 03:48:35;;;;;;;0.55;0.50;;;;;;;;;;5015022;28;20132;-73
2022/07/27 03:51:08;;;;;;;0.30;0.30;;;;;;;;;;5022677;28;20054;-74
2022/07/27 03:53:37;;;;;;;0.20;0.20;;;;;;;;;;5023069;28;20136;-75
2022/07/27 03:56:08;;;;;;;1.30;0.40;;;;;;;;;;5023834;28;20215;-73
2022/07/27 03:58:37;;;;;;;0.82;0.57;;;;;;;;;;5023807;28;20124;-74
2022/07/27 04:01:08;;;;;;;0.30;0.30;;;;;;;;;;5022874;28;20077;-74
2022/07/27 04:03:36;;;;;;;1.15;0.30;;;;;;;;;;5025734;28;20505;-73
2022/07/27 04:06:12;;;;;;;0.20;0.20;;;;;;;;;;5022399;28;20045;-74
2022/07/27 04:08:41;;;;;;;0.30;0.30;;;;;;;;;;5026272;28;20096;-74
2022/07/27 04:11:10;;;;;;;0.30;0.30;;;;;;;;;;5017946;28;20141;-73
2022/07/27 04:13:42;;;;;;;0.45;0.45;;;;;;;;;;5020644;28;20054;-73
2022/07/27 04:16:12;;;;;;;0.57;0.40;;;;;;;;;;5018130;28;21008;-75
2022/07/27 04:18:41;;;;;;;0.77;0.40;;;;;;;;;;5025447;28;20041;-74
2022/07/27 04:21:09;;;;;;;0.52;0.25;;;;;;;;;;5025041;28;20128;-76
2022/07/27 04:23:39;;;;;;;0.55;0.35;;;;;;;;;;5015257;28;20045;-75
2022/07/27 04:26:07;;;;;;;0.73;0.32;;;;;;;;;;5023003;28;20501;-73
2022/07/27 04:28:36;;;;;;;0.60;0.40;;;;;;;;;;5026739;28;20057;-73
2022/07/27 04:31:07;;;;;;;0.40;0.40;;;;;;;;;;5023622;28;20088;-73
2022/07/27 04:33:35;;;;;;;1.10;0.32;;;;;;;;;;5027768;28;20052;-77
2022/07/27 04:36:08;;;;;;;0.85;0.50;;;;;;;;;;5021019;28;20164;-74
2022/07/27 04:38:38;;;;;;;1.05;0.82;;;;;;;;;;5027331;28;20473;-74
2022/07/27 04:41:07;;;;;;;0.40;0.40;;;;;;;;;;5020775;28;20057;-75
2022/07/27 04:43:35;;;;;;;0.30;0.28;;;;;;;;;;5023197;28;20132;-74
2022/07/27 04:46:07;;;;;;;0.60;0.43;;;;;;;;;;5023689;28;20099;-74
2022/07/27 04:48:43;;;;;;;1.05;0.60;;;;;;;;;;5024073;28;20050;-74
2022/07/27 04:51:17;;;;;;;0.20;0.20;;;;;;;;;;5026747;28;20136;-74
2022/07/27 04:53:47;;;;;;;0.98;0.52;;;;;;;;;;5022106;28;20150;-74
2022/07/27 04:56:25;;;;;;;3.03;0.73;;;;;;;;;;5021401;28;20053;-74
2022/07/27 04:58:54;;;;;;;0.57;0.40;;;;;;;;;;5020040;28;20108;-76
2022/07/27 05:01:24;;;;;;;0.65;0.60;;;;;;;;;;5024281;28;20050;-73
2022/07/27 05:03:53;;;;;;;0.30;0.30;;;;;;;;;;5025440;28;20048;-74
2022/07/27 05:06:21;;;;;;;0.45;0.43;;;;;;;;;;5023875;28;20041;-75
2022/07/27 05:08:51;;;;;;;1.45;0.68;;;;;;;;;;5027026;28;20092;-73
2022/07/27 05:11:19;;;;;;;0.57;0.55;;;;;;;;;;5021621;28;20085;-74
2022/07/27 05:13:47;;;;;;;0.30;0.30;;;;;;;;;;5005906;28;20084;-75
2022/07/27 05:16:16;;;;;;;0.17;0.17;;;;;;;;;;5014471;28;20045;-75
2022/07/27 05:18:45;;;;;;;0.30;0.30;;;;;;;;;;5015511;28;20667;-74
2022/07/27 05:21:13;;;;;;;0.95;0.52;;;;;;;;;;5023895;28;20049;-75
2022/07/27 05:23:42;;;;;;;0.50;0.50;;;;;;;;;;5021435;28;20045;-73
2022/07/27 05:26:11;;;;;;;0.38;0.32;;;;;;;;;;5014516;28;20057;-74
2022/07/27 05:28:40;;;;;;;0.40;0.22;;;;;;;;;;5020840;28;20519;-76
2022/07/27 05:31:08;;;;;;;0.65;0.38;;;;;;;;;;5020608;28;20133;-74
2022/07/27 05:33:36;;;;;;;0.20;0.20;;;;;;;;;;5018039;28;20158;-73
2022/07/27 05:36:08;;;;;;;0.30;0.30;;;;;;;;;;5023561;28;20049;-75
2022/07/27 05:38:38;;;;;;;0.20;0.20;;;;;;;;;;5016310;28;20203;-73
2022/07/27 05:41:06;;;;;;;0.45;0.45;;;;;;;;;;5018457;28;20057;-73
2022/07/27 05:43:36;;;;;;;0.93;0.60;;;;;;;;;;5022278;28;20156;-73
2022/07/27 05:46:07;;;;;;;0.25;0.22;;;;;;;;;;5021427;28;20397;-74
2022/07/27 05:48:36;;;;;;;3.58;0.32;;;;;;;;;;5017108;28;20092;-76
2022/07/27 05:51:07;;;;;;;1.40;0.70;;;;;;;;;;5024045;28;20124;-73
2022/07/27 05:53:36;;;;;;;0.45;0.45;;;;;;;;;;5023476;28;20532;-73
2022/07/27 05:56:07;;;;;;;0.38;0.35;;;;;;;;;;5025392;28;20057;-75
2022/07/27 05:58:37;;;;;;;0.75;0.45;;;;;;;;;;5023008;28;20095;-73
2022/07/27 06:01:06;;;;;;;0.40;0.40;;;;;;;;;;5022168;28;20041;-76
2022/07/27 06:03:34;;;;;;;0.80;0.50;;;;;;;;;;5021460;28;20072;-73
2022/07/27 06:08:49;;;;;;;0.63;0.63;;;;;;;;;;5017944;28;20172;-74
2022/07/27 06:11:17;;;;;;;0.45;0.45;;;;;;;;;;5027768;28;20093;-73
2022/07/27 06:13:49;;;;;;;0.30;0.30;;;;;;;;;;5023190;28;20076;-74
2022/07/27 06:16:17;;;;;;;0.20;0.20;;;;;;;;;;5024270;28;20452;-75
2022/07/27 06:18:46;;;;;;;0.20;0.20;;;;;;;;;;5022998;28;20053;-72
2022/07/27 06:21:14;;;;;;;0.30;0.20;;;;;;;;;;5022175;28;20303;-74
2022/07/27 06:23:43;;;;;;;0.75;0.40;;;;;;;;;;5021682;28;20059;-73
2022/07/27 06:26:11;;;;;;;0.55;0.45;;;;;;;;;;5022393;28;20084;-74
2022/07/27 06:28:39;;;;;;;0.47;0.32;;;;;;;;;;5021909;28;20152;-72
2022/07/27 06:31:10;;;;;;;0.40;0.35;;;;;;;;;;5024775;28;20053;-75
2022/07/27 06:33:39;;;;;;;0.22;0.22;;;;;;;;;;5026496;28;20053;-75
2022/07/27 06:36:09;;;;;;;0.68;0.32;;;;;;;;;;5026586;28;20064;-76
2022/07/27 06:38:37;;;;;;;0.38;0.30;;;;;;;;;;5018425;28;20073;-75
2022/07/27 06:41:08;;;;;;;0.32;0.30;;;;;;;;;;5013969;28;20141;-72
2022/07/27 06:43:37;;;;;;;0.93;0.50;;;;;;;;;;5020746;28;20056;-72
2022/07/27 06:46:12;;;;;;;0.30;0.30;;;;;;;;;;5014979;28;20088;-73
2022/07/27 06:48:40;;;;;;;0.10;0.10;;;;;;;;;;5025735;28;20215;-72
2022/07/27 06:51:09;;;;;;;0.68;0.45;;;;;;;;;;5026145;28;20470;-72
2022/07/27 06:53:38;;;;;;;0.35;0.08;;;;;;;;;;5025003;28;20119;-73
2022/07/27 06:56:07;;;;;;;0.38;0.28;;;;;;;;;;5028570;28;20150;-74
2022/07/27 06:58:36;;;;;;;0.52;0.30;;;;;;;;;;5023504;28;20170;-77
2022/07/27 07:01:07;;;;;;;0.90;0.30;;;;;;;;;;5025090;28;20483;-74
2022/07/27 07:03:37;;;;;;;1.58;0.35;;;;;;;;;;5029354;28;20045;-73
2022/07/27 07:06:06;;;;;;;0.20;0.20;;;;;;;;;;5015114;28;20144;-77
2022/07/27 07:08:35;;;;;;;0.15;0.15;;;;;;;;;;5003790;28;20049;-76
2022/07/27 07:11:08;;;;;;;1.95;0.77;;;;;;;;;;5003089;28;20156;-74
2022/07/27 07:13:36;;;;;;;0.43;0.43;;;;;;;;;;5000933;28;20058;-76
2022/07/27 07:16:10;;;;;;;0.47;0.40;;;;;;;;;;5014802;28;20583;-73
2022/07/27 07:18:40;;;;;;;0.40;0.40;;;;;;;;;;5022006;28;20148;-75
2022/07/27 07:21:09;;;;;;;1.30;1.02;;;;;;;;;;5022800;28;20157;-72
2022/07/27 07:23:37;;;;;;;0.77;0.40;;;;;;;;;;5025193;28;20163;-75
2022/07/27 07:26:06;;;;;;;1.35;0.45;;;;;;;;;;5024776;28;20293;-72
2022/07/27 07:28:35;;;;;;;0.68;0.38;;;;;;;;;;5021497;28;20452;-73
2022/07/27 07:31:06;;;;;;;0.80;0.65;;;;;;;;;;5024317;28;20049;-75
2022/07/27 07:33:34;;;;;;;0.32;0.32;;;;;;;;;;5021141;28;20046;-76
2022/07/27 07:36:07;;;;;;;0.50;0.30;;;;;;;;;;5022669;28;20128;-72
2022/07/27 07:38:42;;;;;;;0.32;0.30;;;;;;;;;;5028119;28;20049;-72
2022/07/27 07:41:10;;;;;;;0.55;0.30;;;;;;;;;;5024708;28;20111;-71
2022/07/27 07:43:41;;;;;;;1.10;0.35;;;;;;;;;;5019223;28;21585;-72
2022/07/27 07:46:09;;;;;;;0.47;0.38;;;;;;;;;;5024384;28;20079;-71
2022/07/27 07:48:38;;;;;;;0.65;0.40;;;;;;;;;;5023054;28;20193;-72
2022/07/27 07:51:08;;;;;;;0.80;0.50;;;;;;;;;;5021893;28;20108;-71
2022/07/27 07:53:37;;;;;;;0.52;0.20;;;;;;;;;;5021033;28;20049;-72
2022/07/27 07:56:09;;;;;;;0.52;0.30;;;;;;;;;;5026624;28;20147;-71
2022/07/27 07:58:37;;;;;;;0.35;0.35;;;;;;;;;;5012812;28;20056;-73
2022/07/27 08:01:07;;;;;;;0.57;0.43;;;;;;;;;;5021418;28;20099;-73
2022/07/27 08:03:35;;;;;;;0.47;0.43;;;;;;;;;;5028101;28;20057;-70
2022/07/27 08:06:09;;;;;;;0.40;0.35;;;;;;;;;;5015052;28;20053;-71
2022/07/27 08:08:39;;;;;;;8.18;0.60;;;;;;;;;;5002588;28;20066;-71
2022/07/27 08:11:07;;;;;;;0.50;0.50;;;;;;;;;;5002225;28;20104;-71
2022/07/27 08:13:36;;;;;;;0.38;0.30;;;;;;;;;;5004788;28;20088;-72
2022/07/27 08:16:07;;;;;;;0.45;0.28;;;;;;;;;;5016300;28;20045;-73
2022/07/27 08:18:36;;;;;;;1.00;0.63;;;;;;;;;;5027624;28;20052;-74
2022/07/27 08:21:09;;;;;;;0.40;0.40;;;;;;;;;;5022698;28;20561;-71
2022/07/27 08:23:37;;;;;;;0.85;0.40;;;;;;;;;;5028474;28;20111;-72
2022/07/27 08:26:06;;;;;;;0.57;0.45;;;;;;;;;;5029477;28;20057;-74
2022/07/27 08:28:35;;;;;;;0.40;0.35;;;;;;;;;;5022934;28;20045;-72
2022/07/27 08:31:07;;;;;;;0.47;0.32;;;;;;;;;;5019511;28;20154;-73
2022/07/27 08:33:49;;;;;;;;;;;;;;;;;;5020779;28;20053;-70
2022/07/27 08:36:19;;;;;;;0.20;0.10;;;;;;;;;;5020832;28;20045;-70
2022/07/27 08:38:48;;;;;;;0.50;0.50;;;;;;;;;;5021060;28;20049;-71
2022/07/27 08:41:17;;;;;;;0.65;0.50;;;;;;;;;;5027702;28;20057;-70
2022/07/27 08:43:48;;;;;;;1.13;0.63;;;;;;;;;;5018932;28;20898;-70
2022/07/27 08:46:18;;;;;;;0.47;0.38;;;;;;;;;;5024050;28;20052;-72
2022/07/27 08:48:47;;;;;;;0.57;0.55;;;;;;;;;;5023061;28;20088;-71
2022/07/27 08:51:16;;;;;;;0.88;0.50;;;;;;;;;;5027449;28;20128;-70
2022/07/27 08:53:47;;;;;;;0.57;0.50;;;;;;;;;;5026602;28;20045;-72
2022/07/27 08:56:21;;;;;;;0.77;0.47;;;;;;;;;;5026935;28;20128;-73
2022/07/27 08:58:49;;;;;;;1.00;0.45;;;;;;;;;;5029762;28;20112;-70
2022/07/27 09:01:19;;;;;;;0.35;0.35;;;;;;;;;;5021670;28;20770;-70
2022/07/27 09:03:48;;;;;;;0.65;0.45;;;;;;;;;;5027300;28;20048;-70
2022/07/27 09:06:37;;;;;;;0.60;0.30;;;;;;;;;;5013328;28;20057;-72
2022/07/27 09:09:07;;;;;;;0.43;0.43;;;;;;;;;;5009186;28;20042;-71
2022/07/27 09:11:36;;;;;;;0.38;0.38;;;;;;;;;;5001497;28;20049;-70
2022/07/27 09:14:06;;;;;;;0.50;0.45;;;;;;;;;;5002164;28;20092;-70
2022/07/27 09:16:35;;;;;;;0.90;0.47;;;;;;;;;;5014159;28;20065;-70
2022/07/27 09:19:23;;;;;;;0.73;0.50;;;;;;;;;;5020660;28;20052;-71
2022/07/27 09:21:51;;;;;;;0.20;0.20;;;;;;;;;;5025780;28;20136;-74
2022/07/27 09:24:22;;;;;;;0.90;0.47;;;;;;;;;;5023370;28;20111;-75
2022/07/27 09:27:10;;;;;;;0.35;0.30;;;;;;;;;;5026822;28;20474;-70
2022/07/27 09:29:38;;;;;;;0.50;0.50;;;;;;;;;;5021598;28;20118;-70
2022/07/27 09:32:14;;;;;;;1.20;1.10;;;;;;;;;;5022537;28;20506;-71
2022/07/27 09:34:43;;;;;;;0.50;0.47;;;;;;;;;;5026460;28;20133;-71
2022/07/27 09:37:12;;;;;;;1.25;0.63;;;;;;;;;;5029689;28;20130;-71
2022/07/27 09:39:41;;;;;;;0.55;0.32;;;;;;;;;;5024283;28;20493;-72
2022/07/27 09:42:15;;;;;;;1.67;0.80;;;;;;;;;;5026242;28;20041;-71
2022/07/27 09:45:04;;;;;;;1.38;0.70;;;;;;;;;;5030455;28;20051;-73
2022/07/27 09:47:33;;;;;;;0.85;0.60;;;;;;;;;;5020668;28;20064;-73
2022/07/27 09:50:17;;;;;;;1.55;0.63;;;;;;;;;;5027132;28;20046;-71
2022/07/27 09:52:46;;;;;;;0.55;0.40;;;;;;;;;;5028224;28;20135;-70
2022/07/27 09:55:20;;;;;;;0.50;0.32;;;;;;;;;;5025670;28;20049;-72
2022/07/27 09:57:53;;;;;;;0.40;0.40;;;;;;;;;;5030057;28;20292;-71
2022/07/27 10:00:23;;;;;;;0.65;0.57;;;;;;;;;;5030009;28;20303;-72
2022/07/27 10:02:52;;;;;;;0.40;0.35;;;;;;;;;;5020408;28;20042;-72
2022/07/27 10:05:21;;;;;;;0.82;0.60;;;;;;;;;;5024610;28;20135;-72
2022/07/27 10:07:50;;;;;;;0.98;0.60;;;;;;;;;;5029656;28;20084;-71
2022/07/27 10:10:21;;;;;;;1.88;0.80;;;;;;;;;;5018052;28;20081;-72
2022/07/27 10:12:51;;;;;;;0.80;0.80;;;;;;;;;;5028774;28;20124;-72
2022/07/27 10:15:23;;;;;;;1.20;0.40;;;;;;;;;;5024202;28;20056;-74
2022/07/27 10:17:56;;;;;;;0.98;0.50;;;;;;;;;;5023099;28;20126;-70
2022/07/27 10:20:25;;;;;;;0.55;0.35;;;;;;;;;;5027055;28;20145;-70
2022/07/27 10:22:54;;;;;;;0.57;0.40;;;;;;;;;;5026289;28;20077;-73
2022/07/27 10:25:25;;;;;;;1.70;0.90;;;;;;;;;;5025518;28;20099;-73
2022/07/27 10:28:10;;;;;;;1.05;0.70;;;;;;;;;;5029453;28;20149;-71
2022/07/27 10:30:38;;;;;;;0.32;0.32;;;;;;;;;;5023704;28;20139;-72
2022/07/27 10:33:14;;;;;;;1.02;0.43;;;;;;;;;;5028760;28;20061;-70
2022/07/27 10:35:42;;;;;;;0.40;0.40;;;;;;;;;;5024244;28;20073;-71
2022/07/27 10:38:11;;;;;;;0.63;0.40;;;;;;;;;;5019217;28;20050;-69
2022/07/27 10:40:42;;;;;;;0.30;0.30;;;;;;;;;;5028985;28;20545;-69
2022/07/27 10:43:18;;;;;;;0.43;0.40;;;;;;;;;;5030063;28;20050;-71
2022/07/27 10:45:47;;;;;;;0.30;0.28;;;;;;;;;;5020855;28;20076;-69
2022/07/27 10:48:36;;;;;;;0.40;0.40;;;;;;;;;;5021549;28;20551;-71
2022/07/27 10:51:08;;;;;;;0.30;0.30;;;;;;;;;;5027002;28;20050;-72
2022/07/27 10:53:37;;;;;;;0.40;0.30;;;;;;;;;;5016453;28;20103;-71
2022/07/27 10:59:32;;;;;;;0.60;0.40;;;;;;;;;;5118678;27;21341;-70
2022/07/27 11:02:37;;;;;;;0.45;0.30;;;;;;;;;;5118312;27;20040;-70
2022/07/27 11:05:05;;;;;;;;;;;;;;;;;;5125525;27;20039;-70
2022/07/27 11:07:33;;;;;;;1.25;0.65;;;;;;;;;;5076476;28;20035;-70
2022/07/27 11:10:13;;;;;;;0.55;0.40;;;;;;;;;;5076573;28;20056;-71
2022/07/27 11:12:42;;;;;;;0.50;0.50;;;;;;;;;;5079509;28;20261;-70
2022/07/27 11:15:11;;;;;;;0.60;0.35;;;;;;;;;;5079882;27;20097;-70
2022/07/27 11:17:49;;;;;;;0.20;0.20;;;;;;;;;;5076457;28;20406;-72
2022/07/27 11:20:29;;;;;;;1.42;1.05;;;;;;;;;;5078827;28;20113;-70
2022/07/27 11:23:01;;;;;;;0.60;0.40;;;;;;;;;;5077495;28;20045;-70
2022/07/27 11:25:59;;;;;;;0.40;0.30;;;;;;;;;;5088092;28;20055;-71
2022/07/27 11:28:29;;;;;;;0.45;0.43;;;;;;;;;;5103046;28;20047;-74
2022/07/27 11:30:58;;;;;;;0.43;0.40;;;;;;;;;;5103635;28;20047;-71
2022/07/27 11:33:28;;;;;;;0.55;0.40;;;;;;;;;;5105131;28;20044;-71
2022/07/27 11:35:57;;;;;;;0.32;0.22;;;;;;;;;;5099856;27;20767;-71
2022/07/27 11:38:26;;;;;;;0.30;0.30;;;;;;;;;;5099469;28;20118;-71
2022/07/27 11:40:55;;;;;;;2.03;0.52;;;;;;;;;;5100627;28;20048;-70
2022/07/27 11:43:41;;;;;;;0.40;0.40;;;;;;;;;;5097904;28;20090;-73
2022/07/27 11:46:14;;;;;;;0.73;0.60;;;;;;;;;;5097987;27;20140;-71
2022/07/27 11:48:51;;;;;;;0.50;0.30;;;;;;;;;;5096902;28;20083;-73
2022/07/27 11:51:37;;;;;;;0.40;0.40;;;;;;;;;;5098715;28;20101;-71
2022/07/27 11:54:06;;;;;;;2.45;0.35;;;;;;;;;;5102499;28;20040;-71
2022/07/27 11:56:36;;;;;;;0.50;0.40;;;;;;;;;;5098496;27;20491;-72
2022/07/27 11:59:06;;;;;;;0.60;0.43;;;;;;;;;;5089730;28;20052;-70
2022/07/27 12:01:35;;;;;;;0.43;0.40;;;;;;;;;;5089597;28;20059;-70
2022/07/27 12:04:07;;;;;;;1.15;0.63;;;;;;;;;;5094320;28;20051;-70
2022/07/27 12:06:36;;;;;;;2.78;0.60;;;;;;;;;;5091284;28;20071;-70
2022/07/27 12:09:05;;;;;;;1.08;0.50;;;;;;;;;;5089996;28;20075;-70
2022/07/27 12:11:45;;;;;;;1.23;0.60;;;;;;;;;;5075389;28;20567;-71
2022/07/27 12:14:14;;;;;;;0.93;0.40;;;;;;;;;;5075666;28;20461;-70
2022/07/27 12:16:42;;;;;;;1.48;0.55;;;;;;;;;;5081210;28;20056;-70
2022/07/27 12:19:22;;;;;;;0.80;0.52;;;;;;;;;;5077413;28;20174;-70
2022/07/27 12:21:54;;;;;;;0.35;0.35;;;;;;;;;;5082033;28;20483;-73
2022/07/27 12:24:32;;;;;;;1.95;0.70;;;;;;;;;;5076929;28;20049;-72
2022/07/27 12:27:05;;;;;;;0.30;0.30;;;;;;;;;;5088463;28;20097;-70
2022/07/27 12:29:34;;;;;;;0.30;0.30;;;;;;;;;;5073270;28;20394;-69
2022/07/27 12:32:05;;;;;;;0.40;0.40;;;;;;;;;;5071894;28;20045;-72
2022/07/27 12:34:35;;;;;;;1.38;0.85;;;;;;;;;;5076102;28;20102;-71
2022/07/27 12:37:12;;;;;;;0.93;0.60;;;;;;;;;;5063305;28;20496;-70
2022/07/27 12:39:43;;;;;;;0.47;0.32;;;;;;;;;;5055813;28;20049;-69
2022/07/27 12:42:11;;;;;;;0.63;0.50;;;;;;;;;;5057605;28;20478;-71
2022/07/27 12:44:41;;;;;;;0.40;0.40;;;;;;;;;;5060696;28;20052;-71
2022/07/27 12:50:02;;;;;;;0.80;0.70;;;;;;;;;;5065781;28;20060;-71
2022/07/27 12:52:31;;;;;;;1.27;0.68;;;;;;;;;;5059898;28;20139;-70
2022/07/27 12:54:59;;;;;;;0.40;0.40;;;;;;;;;;5058602;28;20496;-70
2022/07/27 12:57:28;;;;;;;0.77;0.60;;;;;;;;;;5072361;28;20545;-70
2022/07/27 13:00:18;;;;;;;0.30;0.30;;;;;;;;;;5071103;28;20044;-70
2022/07/27 13:02:46;;;;;;;0.82;0.43;;;;;;;;;;5083077;28;20047;-69
2022/07/27 13:05:19;;;;;;;0.70;0.70;;;;;;;;;;5075477;28;20049;-70
2022/07/27 13:07:47;;;;;;;0.57;0.40;;;;;;;;;;5087035;28;20079;-70
2022/07/27 13:10:18;;;;;;;0.90;0.70;;;;;;;;;;5077083;28;20500;-70
2022/07/27 13:12:47;;;;;;;0.40;0.40;;;;;;;;;;5074287;28;20047;-71
2022/07/27 13:15:16;;;;;;;0.40;0.40;;;;;;;;;;5076414;28;20357;-70
2022/07/27 13:17:46;;;;;;;0.57;0.57;;;;;;;;;;5079769;28;20487;-71
2022/07/27 13:20:15;;;;;;;1.95;0.38;;;;;;;;;;5077595;28;20143;-73
2022/07/27 13:22:46;;;;;;;1.70;0.77;;;;;;;;;;5070071;28;20400;-70
2022/07/27 13:25:14;;;;;;;0.68;0.52;;;;;;;;;;5072842;28;20194;-70
2022/07/27 13:27:45;;;;;;;1.08;0.70;;;;;;;;;;5070322;28;20080;-71
2022/07/27 13:30:14;;;;;;;0.93;0.60;;;;;;;;;;5086118;28;20117;-70
2022/07/27 13:32:45;;;;;;;1.50;1.30;;;;;;;;;;5074156;28;20244;-72
2022/07/27 13:35:15;;;;;;;2.47;0.93;;;;;;;;;;5072910;28;20059;-71
2022/07/27 13:37:46;;;;;;;0.93;0.40;;;;;;;;;;5060146;28;20047;-71
2022/07/27 13:40:14;;;;;;;0.98;0.68;;;;;;;;;;5057028;28;20106;-72
2022/07/27 13:42:43;;;;;;;1.10;0.75;;;;;;;;;;5060395;28;20103;-70
2022/07/27 13:45:12;;;;;;;0.47;0.47;;;;;;;;;;5055564;28;20110;-75
2022/07/27 13:47:41;;;;;;;0.45;0.32;;;;;;;;;;5056209;28;20102;-71
2022/07/27 13:50:11;;;;;;;0.80;0.57;;;;;;;;;;5056126;28;20087;-71
2022/07/27 13:52:48;;;;;;;2.80;0.60;;;;;;;;;;5053812;28;20488;-72
2022/07/27 13:55:17;;;;;;;0.57;0.47;;;;;;;;;;5065660;28;20431;-71
2022/07/27 13:57:46;;;;;;;0.75;0.65;;;;;;;;;;5072195;28;20063;-71
2022/07/27 14:00:15;;;;;;;0.35;0.35;;;;;;;;;;5070853;28;20433;-76
2022/07/27 14:02:45;;;;;;;0.80;0.75;;;;;;;;;;5074629;28;20044;-76
2022/07/27 14:05:14;;;;;;;0.38;0.38;;;;;;;;;;5071472;28;20075;-74
2022/07/27 14:07:49;;;;;;;2.33;0.57;;;;;;;;;;5074756;28;20040;-73
2022/07/27 14:10:38;;;;;;;0.63;0.63;;;;;;;;;;5073795;28;20056;-71
2022/07/27 14:13:08;;;;;;;0.80;0.80;;;;;;;;;;5076733;28;20501;-71
2022/07/27 14:15:38;;;;;;;0.50;0.50;;;;;;;;;;5072668;28;20051;-71
2022/07/27 14:18:23;;;;;;;0.60;0.60;;;;;;;;;;5073160;28;20399;-71
2022/07/27 14:20:52;;;;;;;0.60;0.50;;;;;;;;;;5072066;28;20498;-73
2022/07/27 14:23:22;;;;;;;0.40;0.40;;;;;;;;;;5077710;28;20044;-72
2022/07/27 14:25:50;;;;;;;2.03;0.45;;;;;;;;;;5071105;28;20608;-70
2022/07/27 14:28:19;;;;;;;0.82;0.60;;;;;;;;;;5076654;28;20054;-72
2022/07/27 14:30:49;;;;;;;0.50;0.50;;;;;;;;;;5076048;28;20135;-72
2022/07/27 14:33:18;;;;;;;0.75;0.45;;;;;;;;;;5071630;28;20054;-71
2022/07/27 14:35:47;;;;;;;0.50;0.50;;;;;;;;;;5064429;28;20501;-78
2022/07/27 14:38:16;;;;;;;0.38;0.35;;;;;;;;;;5051328;28;20742;-70
2022/07/27 14:41:00;;;;;;;0.50;0.45;;;;;;;;;;5052955;28;20049;-71
2022/07/27 14:43:31;;;;;;;0.65;0.40;;;;;;;;;;5050222;28;20094;-71
2022/07/27 14:45:59;;;;;;;0.68;0.57;;;;;;;;;;5061046;28;20052;-75
2022/07/27 14:48:28;;;;;;;3.13;0.98;;;;;;;;;;5051363;28;20053;-71
2022/07/27 14:51:17;;;;;;;0.30;0.30;;;;;;;;;;5063940;28;20056;-71
2022/07/27 14:53:46;;;;;;;1.20;0.93;;;;;;;;;;5061318;28;20060;-71
2022/07/27 14:56:16;;;;;;;0.73;0.47;;;;;;;;;;5054648;28;20048;-73
2022/07/27 14:58:44;;;;;;;0.57;0.57;;;;;;;;;;5066596;28;20044;-71
2022/07/27 15:01:14;;;;;;;0.28;0.28;;;;;;;;;;5065487;28;20056;-71
2022/07/27 15:03:44;;;;;;;0.30;0.30;;;;;;;;;;5062648;28;20044;-71
2022/07/27 15:06:12;;;;;;;0.63;0.50;;;;;;;;;;5062983;28;20048;-69
2022/07/27 15:08:41;;;;;;;1.00;0.52;;;;;;;;;;5067207;28;20067;-69
2022/07/27 15:11:09;;;;;;;0.70;0.60;;;;;;;;;;5067816;28;20044;-69
2022/07/27 15:13:39;;;;;;;0.50;0.50;;;;;;;;;;5067192;28;20103;-69